Time;durP1;ratioP1;P1;durP2;ratioP2;P2;SDS_P1;SDS_P2;PMS_P1;PMS_P2;Temp;Humidity;BMP_temperature;BMP_pressure;BME280_temperature;BME280_humidity;BME280_pressure;Samples;Min_cycle;Max_cycle;Signal;HPM_P1;HPM_P2
2023/12/24 00:00:59;;;;;;;4.07;1.80;;;9.70;99.90;;;;;;4964430;28;20059;-81
2023/12/24 00:03:26;;;;;;;3.28;1.60;;;9.20;99.90;;;;;;4954737;29;20051;-80
2023/12/24 00:05:57;;;;;;;3.20;1.27;;;9.80;99.90;;;;;;4968225;28;20058;-81
2023/12/24 00:16:04;;;;;;;2.35;1.20;;;8.20;99.90;;;;;;4909073;29;20623;-83
2023/12/24 00:32:27;;;;;;;3.60;1.50;;;;;;;;;;4886803;29;20461;-80
2023/12/24 00:35:41;;;;;;;;;;;;;;;;;;;;;
2023/12/24 00:41:58;;;;;;;3.70;1.60;;;9.70;99.90;;;;;;4906020;29;20033;-81
2023/12/24 00:44:30;;;;;;;2.67;1.40;;;;;;;;;;4912913;28;20032;-82
2023/12/24 00:50:56;;;;;;;4.82;1.67;;;9.50;99.90;;;;;;4927759;29;20040;-83
2023/12/24 00:53:26;;;;;;;3.50;1.77;;;;;;;;;;4911433;29;20024;-80
2023/12/24 00:55:58;;;;;;;3.90;1.33;;;;;;;;;;4970124;28;20053;-84
2023/12/24 00:58:29;;;;;;;3.65;1.30;;;9.30;99.90;;;;;;4986250;28;20086;-79
2023/12/24 01:03:33;;;;;;;3.17;1.33;;;;;;;;;;5375913;23;20090;-82
2023/12/24 01:06:11;;;;;;;;;;;;;;;;;;;;;
2023/12/24 01:12:55;;;;;;;3.70;2.03;;;9.10;99.90;;;;;;4938432;29;20041;-81
2023/12/24 01:15:29;;;;;;;2.70;1.83;;;9.00;99.90;;;;;;4926219;29;20040;-82
2023/12/24 01:25:18;;;;;;;5.45;2.25;;;9.10;99.90;;;;;;4960552;28;20072;-82
2023/12/24 01:27:53;;;;;;;2.72;1.50;;;8.30;99.90;;;;;;4999742;28;20027;-80
2023/12/24 01:44:18;;;;;;;4.43;2.08;;;9.20;99.90;;;;;;5052534;23;20050;-82
2023/12/24 01:47:02;;;;;;;6.90;2.95;;;9.30;99.90;;;;;;5005584;28;20026;-80
2023/12/24 01:49:31;;;;;;;3.05;1.10;;;9.40;99.90;;;;;;4999737;28;20014;-81
2023/12/24 02:24:27;;;;;;;3.00;1.23;;;9.50;99.90;;;;;;5138498;23;20065;-82
2023/12/24 02:33:43;;;;;;;3.55;1.23;;;9.80;99.90;;;;;;4853826;29;20004;-82
2023/12/24 02:36:35;;;;;;;4.70;1.38;;;9.70;99.90;;;;;;4911918;29;20044;-81
2023/12/24 02:43:14;;;;;;;3.17;1.10;;;8.60;99.90;;;;;;4889753;29;20133;-84
2023/12/24 02:49:38;;;;;;;1.30;0.90;;;9.50;99.90;;;;;;4956952;29;20038;-81
2023/12/24 02:52:13;;;;;;;4.03;1.10;;;9.80;99.90;;;;;;4962738;28;20036;-81
2023/12/24 02:54:57;;;;;;;2.53;1.20;;;9.60;99.90;;;;;;4968676;28;20032;-82
2023/12/24 03:00:48;;;;;;;2.47;1.20;;;9.80;99.90;;;;;;4858478;29;20038;-82
2023/12/24 03:03:24;;;;;;;1.60;1.00;;;9.80;99.90;;;;;;4958983;28;20035;-81
2023/12/24 03:06:02;;;;;;;1.95;1.20;;;9.50;99.90;;;;;;4959803;28;20126;-82
2023/12/24 03:08:31;;;;;;;3.72;1.20;;;8.40;99.90;;;;;;4971981;28;20031;-81
2023/12/24 03:11:12;;;;;;;2.08;1.25;;;9.50;99.90;;;;;;4951738;29;20032;-81
2023/12/24 03:13:47;;;;;;;1.95;1.30;;;9.70;99.90;;;;;;4966806;28;20038;-80
2023/12/24 03:16:28;;;;;;;3.67;1.42;;;9.30;99.90;;;;;;4966610;28;20042;-81
2023/12/24 03:34:00;;;;;;;;;;;;;;;;;;;;;
2023/12/24 03:37:04;;;;;;;3.05;1.38;;;9.20;99.90;;;;;;4949595;29;20087;-79
2023/12/24 03:39:44;;;;;;;3.35;1.33;;;7.70;99.90;;;;;;4949882;29;20047;-82
2023/12/24 03:42:56;;;;;;;4.18;1.40;;;9.20;99.90;;;;;;4929928;29;20056;-83
2023/12/24 03:45:32;;;;;;;2.80;1.40;;;9.20;99.90;;;;;;4895841;29;20048;-81
2023/12/24 03:51:26;;;;;;;4.00;1.98;;;8.90;99.90;;;;;;4926634;29;20135;-81
2023/12/24 03:53:53;;;;;;;4.05;1.48;;;;;;;;;;4930345;29;20063;-81
2023/12/24 03:56:42;;;;;;;2.55;1.55;;;8.80;99.90;;;;;;4938683;29;20031;-82
2023/12/24 03:59:11;;;;;;;2.75;1.50;;;8.80;99.90;;;;;;4969774;28;20035;-81
2023/12/24 04:01:37;;;;;;;3.30;1.40;;;9.50;99.90;;;;;;4967256;28;20035;-81
2023/12/24 04:04:04;;;;;;;4.32;1.52;;;8.50;99.90;;;;;;4976843;28;20035;-81
2023/12/24 04:06:31;;;;;;;2.22;1.40;;;8.80;99.90;;;;;;4971196;28;20027;-82
2023/12/24 04:09:01;;;;;;;1.77;1.33;;;8.80;99.90;;;;;;4981716;28;20023;-82
2023/12/24 04:11:30;;;;;;;2.95;1.20;;;8.70;99.90;;;;;;4974318;28;20031;-82
2023/12/24 04:13:58;;;;;;;4.97;1.52;;;8.90;99.90;;;;;;4975070;28;20125;-83
2023/12/24 04:16:27;;;;;;;2.78;1.50;;;9.10;99.90;;;;;;4978222;28;20030;-80
2023/12/24 04:19:10;;;;;;;2.25;1.50;;;9.10;99.90;;;;;;4969859;28;20031;-80
2023/12/24 04:21:39;;;;;;;2.50;1.50;;;8.60;99.90;;;;;;4973517;28;20107;-82
2023/12/24 04:24:10;;;;;;;2.40;1.60;;;7.20;99.90;;;;;;4964803;28;20023;-80
2023/12/24 04:26:42;;;;;;;2.83;1.60;;;8.90;99.90;;;;;;4973445;28;20106;-83
2023/12/24 04:29:11;;;;;;;2.70;1.70;;;8.80;99.90;;;;;;4971434;28;20031;-83
2023/12/24 04:31:47;;;;;;;3.25;1.60;;;8.20;99.90;;;;;;4970986;28;20045;-82
2023/12/24 04:34:14;;;;;;;2.70;1.50;;;8.30;99.90;;;;;;4971834;28;20053;-82
2023/12/24 04:36:45;;;;;;;2.85;1.73;;;9.00;99.90;;;;;;4952896;28;20043;-81
2023/12/24 04:39:13;;;;;;;2.55;1.67;;;9.20;99.90;;;;;;4971143;28;20115;-80
2023/12/24 04:44:25;;;;;;;2.35;1.63;;;8.50;99.90;;;;;;4975248;28;20039;-81
2023/12/24 04:47:02;;;;;;;2.25;1.70;;;9.20;99.90;;;;;;4969526;28;20078;-82
2023/12/24 04:49:31;;;;;;;2.33;1.70;;;9.00;99.90;;;;;;4971507;28;20043;-82
2023/12/24 04:51:59;;;;;;;2.35;1.55;;;9.10;99.90;;;;;;4972064;28;20028;-81
2023/12/24 04:54:26;;;;;;;3.63;1.70;;;9.40;99.90;;;;;;4965691;28;20030;-81
2023/12/24 04:56:58;;;;;;;2.47;1.35;;;8.70;99.90;;;;;;4975192;28;20055;-80
2023/12/24 04:59:41;;;;;;;4.78;1.80;;;8.50;99.90;;;;;;4981531;28;20054;-83
2023/12/24 05:02:13;;;;;;;3.97;1.60;;;8.70;99.90;;;;;;4971561;28;20031;-80
2023/12/24 05:04:43;;;;;;;2.95;1.63;;;9.30;99.90;;;;;;4958588;28;20055;-83
2023/12/24 05:07:09;;;;;;;2.90;1.70;;;8.90;99.90;;;;;;4958577;28;20034;-82
2023/12/24 05:12:49;;;;;;;3.92;1.70;;;9.10;99.90;;;;;;4981895;28;20046;-82
2023/12/24 05:15:19;;;;;;;3.08;1.50;;;8.30;99.90;;;;;;4967899;28;20035;-80
2023/12/24 05:18:05;;;;;;;3.05;1.40;;;9.10;99.90;;;;;;4959299;28;20016;-81
2023/12/24 05:20:43;;;;;;;3.17;1.67;;;7.70;99.90;;;;;;4959329;28;20042;-83
2023/12/24 05:27:07;;;;;;;3.85;1.40;;;10.00;99.90;;;;;;4967044;28;20042;-81
2023/12/24 05:29:37;;;;;;;2.13;1.15;;;9.20;99.90;;;;;;4967941;28;20135;-81
2023/12/24 05:32:24;;;;;;;1.95;1.40;;;9.20;99.90;;;;;;4963682;28;20134;-80
2023/12/24 05:34:53;;;;;;;2.17;1.30;;;7.60;99.90;;;;;;4966209;28;20039;-81
2023/12/24 05:37:20;;;;;;;2.00;1.20;;;10.40;99.90;;;;;;4968402;28;20051;-83
2023/12/24 05:39:50;;;;;;;2.53;1.17;;;9.60;99.90;;;;;;4966305;28;20034;-80
2023/12/24 05:42:16;;;;;;;1.85;1.00;;;10.30;99.90;;;;;;4967622;28;20031;-82
2023/12/24 05:44:53;;;;;;;2.63;1.00;;;9.20;99.90;;;;;;4949119;28;20020;-81
2023/12/24 05:47:19;;;;;;;1.77;1.10;;;9.20;99.90;;;;;;4968294;28;20038;-81
2023/12/24 05:49:50;;;;;;;1.33;0.80;;;7.40;99.90;;;;;;4975542;28;20023;-81
2023/12/24 05:52:37;;;;;;;3.35;1.08;;;8.50;99.90;;;;;;4973553;28;20011;-82
2023/12/24 05:55:24;;;;;;;1.55;1.00;;;9.30;99.90;;;;;;4958170;28;20031;-80
2023/12/24 05:57:54;;;;;;;1.83;0.90;;;9.90;99.90;;;;;;4972055;28;20027;-81
2023/12/24 06:00:35;;;;;;;3.08;1.05;;;9.30;99.90;;;;;;4961829;28;20656;-80
2023/12/24 06:03:02;;;;;;;2.85;0.95;;;11.10;99.90;;;;;;4968550;28;20042;-80
2023/12/24 06:05:51;;;;;;;3.25;1.15;;;7.30;99.90;;;;;;4980395;28;20031;-80
2023/12/24 06:08:17;;;;;;;;;;;8.20;99.90;;;;;;4974409;28;20023;-80
2023/12/24 06:10:46;;;;;;;1.83;1.00;;;9.20;99.90;;;;;;4966820;28;19898;-82
2023/12/24 06:13:12;;;;;;;2.63;1.10;;;8.60;99.90;;;;;;4968144;28;20027;-80
2023/12/24 06:15:39;;;;;;;4.20;1.00;;;8.40;99.90;;;;;;4964727;28;20118;-81
2023/12/24 06:18:09;;;;;;;2.70;1.10;;;11.10;99.90;;;;;;4962625;28;20118;-81
2023/12/24 06:20:39;;;;;;;2.58;1.10;;;9.40;99.90;;;;;;4963764;28;20032;-82
2023/12/24 06:23:10;;;;;;;3.83;1.20;;;9.70;99.90;;;;;;4969334;28;20034;-83
2023/12/24 06:25:38;;;;;;;2.53;1.35;;;10.20;99.90;;;;;;4971460;28;20106;-82
2023/12/24 06:28:04;;;;;;;2.92;1.30;;;10.40;99.90;;;;;;4966564;28;20094;-80
2023/12/24 06:30:35;;;;;;;1.80;1.02;;;9.30;99.90;;;;;;4963893;28;20046;-81
2023/12/24 06:33:10;;;;;;;2.42;1.10;;;9.30;99.90;;;;;;4960311;28;20019;-80
2023/12/24 06:35:57;;;;;;;2.28;1.02;;;11.30;99.90;;;;;;4963532;28;20039;-80
2023/12/24 06:38:31;;;;;;;2.00;0.85;;;9.20;99.90;;;;;;4960381;28;20020;-81
2023/12/24 06:41:03;;;;;;;3.92;0.93;;;9.60;99.90;;;;;;4965147;28;20075;-81
2023/12/24 06:43:46;;;;;;;1.88;0.85;;;9.30;99.90;;;;;;4971472;28;20082;-80
2023/12/24 06:46:12;;;;;;;1.88;0.90;;;9.20;99.90;;;;;;4952690;29;20043;-80
2023/12/24 06:48:45;;;;;;;1.10;0.60;;;9.20;99.90;;;;;;4982473;28;20031;-82
2023/12/24 06:51:14;;;;;;;2.17;0.95;;;9.30;99.90;;;;;;4965513;28;20055;-82
2023/12/24 06:53:40;;;;;;;1.58;0.95;;;9.50;99.90;;;;;;4970887;28;20027;-82
2023/12/24 06:56:12;;;;;;;1.20;0.80;;;9.00;99.90;;;;;;4969871;28;20031;-80
2023/12/24 06:58:41;;;;;;;0.90;0.80;;;9.40;99.90;;;;;;4966853;28;20023;-83
2023/12/24 07:01:07;;;;;;;2.58;0.88;;;9.30;99.90;;;;;;4964570;28;20035;-81
2023/12/24 07:03:34;;;;;;;3.25;0.80;;;9.40;99.90;;;;;;4968942;28;20031;-81
2023/12/24 07:06:16;;;;;;;1.77;0.90;;;9.30;99.90;;;;;;4966019;28;20051;-81
2023/12/24 07:09:06;;;;;;;1.30;0.80;;;9.50;99.90;;;;;;4980609;28;20015;-81
2023/12/24 07:11:32;;;;;;;1.15;0.90;;;;;;;;;;4976563;23;20060;-88
2023/12/24 07:13:58;;;;;;;2.55;0.95;;;9.40;99.90;;;;;;4996112;28;20133;-88
2023/12/24 07:16:23;;;;;;;1.17;0.80;;;9.50;99.90;;;;;;4996642;28;20061;-84
2023/12/24 07:18:49;;;;;;;2.03;1.10;;;11.50;99.90;;;;;;5000578;28;20063;-89
2023/12/24 07:21:15;;;;;;;2.25;0.82;;;8.40;99.90;;;;;;4997034;28;20030;-86
2023/12/24 07:23:42;;;;;;;1.13;0.85;;;9.30;99.90;;;;;;4984756;28;20054;-89
2023/12/24 07:26:08;;;;;;;0.98;0.80;;;10.70;99.90;;;;;;4980008;28;20094;-86
2023/12/24 07:28:34;;;;;;;1.67;0.95;;;9.40;99.90;;;;;;4979230;28;20038;-88
2023/12/24 07:31:00;;;;;;;1.30;0.82;;;9.30;99.90;;;;;;4999942;28;20061;-87
2023/12/24 07:33:35;;;;;;;2.28;0.98;;;9.20;99.90;;;;;;4981724;28;20124;-86
2023/12/24 07:36:01;;;;;;;2.15;0.90;;;9.20;99.90;;;;;;4987419;28;20031;-85
2023/12/24 07:38:29;;;;;;;2.15;1.00;;;10.40;99.90;;;;;;4987303;28;20030;-84
2023/12/24 07:40:56;;;;;;;1.40;0.80;;;9.50;99.90;;;;;;4979014;28;20026;-84
2023/12/24 07:43:22;;;;;;;2.53;1.10;;;9.40;99.90;;;;;;4986190;28;20026;-83
2023/12/24 07:45:57;;;;;;;2.25;0.93;;;10.90;99.90;;;;;;5000564;28;20030;-87
2023/12/24 07:48:25;;;;;;;2.45;0.93;;;9.10;99.90;;;;;;4985057;28;20027;-87
2023/12/24 07:50:54;;;;;;;3.22;0.90;;;10.80;99.90;;;;;;4986565;28;20057;-86
2023/12/24 07:53:21;;;;;;;1.52;0.90;;;9.30;99.90;;;;;;4985013;28;20027;-86
2023/12/24 07:55:47;;;;;;;1.30;0.80;;;10.50;99.90;;;;;;4984612;28;20034;-89
2023/12/24 07:58:12;;;;;;;2.95;0.90;;;10.20;99.90;;;;;;4982381;28;20023;-84
2023/12/24 08:00:38;;;;;;;1.33;0.75;;;9.30;99.90;;;;;;4982922;28;20057;-86
2023/12/24 08:03:04;;;;;;;1.52;1.02;;;;;;;;;;4981699;28;20034;-88
2023/12/24 08:05:31;;;;;;;3.22;1.30;;;9.30;99.90;;;;;;4980520;28;20030;-89
2023/12/24 08:07:56;;;;;;;0.98;0.70;;;9.30;99.90;;;;;;4988074;28;20027;-91
2023/12/24 08:10:22;;;;;;;0.95;0.77;;;10.50;99.90;;;;;;4996309;28;20057;-86
2023/12/24 08:12:48;;;;;;;2.28;1.00;;;11.40;99.90;;;;;;4983114;28;20090;-89
2023/12/24 08:15:13;;;;;;;1.38;0.80;;;9.30;99.90;;;;;;4981929;28;20054;-86
2023/12/24 08:17:40;;;;;;;1.20;0.77;;;10.20;99.90;;;;;;4980081;28;20050;-85
2023/12/24 08:20:07;;;;;;;0.63;0.60;;;9.50;99.90;;;;;;4973243;28;20037;-86
2023/12/24 08:22:34;;;;;;;1.40;0.80;;;7.40;99.90;;;;;;4997096;28;20181;-87
2023/12/24 08:25:00;;;;;;;1.35;0.60;;;11.80;99.90;;;;;;4974670;28;20031;-88
2023/12/24 08:27:26;;;;;;;1.13;0.70;;;9.40;99.90;;;;;;4979568;28;20037;-90
2023/12/24 08:29:52;;;;;;;1.85;0.68;;;9.50;99.90;;;;;;4975597;28;20060;-85
2023/12/24 08:32:17;;;;;;;1.27;0.80;;;9.50;99.90;;;;;;4990622;28;20031;-88
2023/12/24 08:34:43;;;;;;;2.10;0.80;;;9.50;99.90;;;;;;4977543;28;20495;-85
2023/12/24 08:37:09;;;;;;;5.70;1.65;;;11.20;99.90;;;;;;4978279;28;20437;-85
2023/12/24 08:39:34;;;;;;;1.20;0.52;;;9.50;99.90;;;;;;4982050;28;20031;-86
2023/12/24 08:42:00;;;;;;;1.42;0.60;;;10.90;99.90;;;;;;4981406;28;20034;-87
2023/12/24 08:44:26;;;;;;;0.75;0.55;;;9.30;99.90;;;;;;4972902;28;20042;-88
2023/12/24 08:46:52;;;;;;;1.23;0.75;;;9.00;99.90;;;;;;4980456;28;20485;-91
2023/12/24 08:49:19;;;;;;;1.05;0.70;;;9.50;99.90;;;;;;4974444;28;20026;-85
2023/12/24 08:51:45;;;;;;;1.67;0.88;;;11.30;99.90;;;;;;4956999;28;20038;-84
2023/12/24 08:54:11;;;;;;;0.90;0.68;;;11.60;99.90;;;;;;4980676;28;20035;-87
2023/12/24 08:56:36;;;;;;;1.90;0.90;;;9.50;99.90;;;;;;4977386;28;20446;-86
2023/12/24 08:59:07;;;;;;;2.03;0.70;;;9.50;99.90;;;;;;4974519;28;20027;-86
2023/12/24 09:01:33;;;;;;;1.35;0.70;;;9.50;99.90;;;;;;4973828;28;20083;-88
2023/12/24 09:04:00;;;;;;;4.10;1.13;;;10.00;99.90;;;;;;4978149;28;20039;-86
2023/12/24 09:06:26;;;;;;;1.10;0.70;;;10.30;99.90;;;;;;4981004;28;20113;-89
2023/12/24 09:08:52;;;;;;;1.77;0.80;;;11.40;99.90;;;;;;4980347;28;20090;-88
2023/12/24 09:11:18;;;;;;;1.33;0.70;;;9.40;99.90;;;;;;4984314;28;20110;-86
2023/12/24 09:13:44;;;;;;;1.40;0.60;;;9.50;99.90;;;;;;4985106;28;20047;-87
2023/12/24 09:16:12;;;;;;;0.50;0.50;;;9.30;99.90;;;;;;4980475;28;20090;-91
2023/12/24 09:18:38;;;;;;;2.42;0.70;;;9.30;99.90;;;;;;4983946;28;20035;-87
2023/12/24 09:21:04;;;;;;;1.80;0.80;;;9.30;99.90;;;;;;4982579;28;20035;-88
2023/12/24 09:23:30;;;;;;;1.35;0.60;;;10.70;99.90;;;;;;4979780;28;20026;-87
2023/12/24 09:25:59;;;;;;;1.75;0.80;;;11.00;99.90;;;;;;4975974;28;20037;-88
2023/12/24 09:28:25;;;;;;;1.83;0.80;;;9.60;99.90;;;;;;4981783;28;20030;-85
2023/12/24 09:30:55;;;;;;;1.23;0.60;;;8.30;99.90;;;;;;4978448;28;20054;-87
2023/12/24 09:33:34;;;;;;;0.95;0.55;;;10.60;99.90;;;;;;4986252;28;20065;-87
2023/12/24 09:36:07;;;;;;;1.00;0.60;;;9.30;99.90;;;;;;4974256;28;20039;-87
2023/12/24 09:38:39;;;;;;;2.45;0.90;;;9.30;99.90;;;;;;4976880;28;20027;-87
2023/12/24 09:41:10;;;;;;;0.90;0.60;;;10.30;99.90;;;;;;4992852;28;20030;-89
2023/12/24 09:43:40;;;;;;;1.30;0.60;;;9.40;99.90;;;;;;4976477;28;20023;-90
2023/12/24 09:46:05;;;;;;;0.80;0.70;;;9.40;99.90;;;;;;4980276;28;20039;-88
2023/12/24 09:48:31;;;;;;;0.90;0.63;;;8.80;99.90;;;;;;4975590;28;20038;-85
2023/12/24 09:50:58;;;;;;;1.38;0.70;;;10.90;99.90;;;;;;4982337;28;20031;-87
2023/12/24 09:53:24;;;;;;;1.67;0.50;;;9.40;99.90;;;;;;4981892;28;20027;-87
2023/12/24 09:55:58;;;;;;;0.95;0.60;;;10.40;99.90;;;;;;4984638;28;20126;-88
2023/12/24 09:58:41;;;;;;;1.50;0.65;;;9.60;99.90;;;;;;4986024;28;20484;-87
2023/12/24 10:01:13;;;;;;;1.77;0.80;;;10.20;99.90;;;;;;4983859;28;20027;-89
2023/12/24 10:03:44;;;;;;;1.17;0.80;;;9.60;99.90;;;;;;4979252;28;20646;-87
2023/12/24 10:06:15;;;;;;;3.55;1.00;;;9.50;99.90;;;;;;4979699;28;20039;-89
2023/12/24 10:09:05;;;;;;;1.70;0.90;;;9.70;99.90;;;;;;4979181;28;20034;-91
2023/12/24 10:11:37;;;;;;;1.63;0.70;;;9.40;99.90;;;;;;4982985;28;20073;-85
2023/12/24 10:14:08;;;;;;;1.50;0.70;;;9.50;99.90;;;;;;4985508;28;20432;-85
2023/12/24 10:16:51;;;;;;;1.00;0.60;;;9.50;99.90;;;;;;5002989;28;20023;-87
2023/12/24 10:19:34;;;;;;;1.20;0.70;;;9.40;99.90;;;;;;4980005;28;20031;-84
2023/12/24 10:22:18;;;;;;;1.20;0.80;;;10.60;99.90;;;;;;4987248;28;20050;-89
2023/12/24 10:24:47;;;;;;;2.38;0.90;;;9.60;99.90;;;;;;4983415;28;20011;-88
2023/12/24 10:27:16;;;;;;;1.48;0.95;;;10.70;99.90;;;;;;4991503;28;20042;-87
2023/12/24 10:29:50;;;;;;;0.95;0.75;;;9.90;99.90;;;;;;4988478;28;20018;-85
2023/12/24 10:32:25;;;;;;;2.00;0.90;;;9.80;99.90;;;;;;4983230;28;20023;-88
2023/12/24 10:35:23;;;;;;;2.17;0.95;;;10.80;99.90;;;;;;4985107;28;20062;-87
2023/12/24 10:41:10;;;;;;;1.30;0.70;;;9.60;99.90;;;;;;4978588;28;20382;-87
2023/12/24 10:43:36;;;;;;;2.65;1.10;;;9.70;99.90;;;;;;4984945;28;20031;-87
2023/12/24 10:46:08;;;;;;;1.02;0.63;;;9.80;99.90;;;;;;4977069;28;20034;-89
2023/12/24 10:48:42;;;;;;;1.25;0.70;;;10.20;99.90;;;;;;4991532;28;20380;-89
2023/12/24 10:51:30;;;;;;;0.65;0.60;;;11.60;99.90;;;;;;4971449;28;20058;-88
2023/12/24 10:54:24;;;;;;;1.23;0.73;;;9.60;99.90;;;;;;4988628;28;20031;-88
2023/12/24 10:57:31;;;;;;;1.00;0.70;;;9.90;99.90;;;;;;4981680;28;20046;-87
2023/12/24 11:00:28;;;;;;;0.88;0.70;;;9.60;99.90;;;;;;4987864;28;20045;-87
2023/12/24 11:03:16;;;;;;;2.10;0.70;;;;;;;;;;4988618;28;20031;-89
2023/12/24 11:06:02;;;;;;;;;;;;;;;;;;;;;
2023/12/24 11:34:28;;;;;;;1.05;0.68;;;8.90;99.90;;;;;;4846001;29;21410;-86
2023/12/24 11:41:29;;;;;;;1.42;0.75;;;9.70;99.90;;;;;;4793106;29;20078;-89
2023/12/24 11:51:31;;;;;;;1.38;0.80;;;9.70;99.90;;;;;;4890926;29;20028;-87
2023/12/24 12:12:54;;;;;;;;;;;;;;;;;;;;;
2023/12/24 12:26:28;;;;;;;2.30;1.00;;;9.90;99.90;;;;;;4898883;29;20092;-88
2023/12/24 12:33:10;;;;;;;;;;;;;;;;;;;;;
2023/12/24 13:52:06;;;;;;;1.88;0.82;;;9.90;99.90;;;;;;5001856;28;20085;-89
2023/12/24 13:54:38;;;;;;;0.88;0.65;;;9.90;99.90;;;;;;4976487;28;20073;-89
2023/12/24 13:57:11;;;;;;;2.28;0.90;;;10.20;99.90;;;;;;4973545;28;20030;-87
2023/12/24 13:59:37;;;;;;;1.30;1.00;;;9.80;99.90;;;;;;4995164;28;20026;-90
2023/12/24 14:02:03;;;;;;;1.48;0.90;;;10.90;99.90;;;;;;4983196;28;20037;-87
2023/12/24 14:04:29;;;;;;;1.98;1.10;;;10.00;99.90;;;;;;4999936;28;20026;-88
2023/12/24 14:06:55;;;;;;;1.67;0.93;;;10.00;99.90;;;;;;4984029;28;20381;-89
2023/12/24 14:09:24;;;;;;;1.75;1.02;;;10.10;99.90;;;;;;4997916;28;20531;-88
2023/12/24 14:12:06;;;;;;;3.80;1.58;;;10.10;99.90;;;;;;4978225;28;20022;-88
2023/12/24 14:14:35;;;;;;;2.20;1.05;;;9.00;99.90;;;;;;5010037;28;20014;-89
2023/12/24 14:17:01;;;;;;;1.33;0.70;;;10.00;99.90;;;;;;4984869;28;20039;-88
2023/12/24 14:19:29;;;;;;;2.92;1.13;;;9.60;99.90;;;;;;5008327;28;20066;-86
2023/12/24 14:21:55;;;;;;;3.08;1.10;;;10.90;99.90;;;;;;5011495;28;20053;-87
2023/12/24 14:24:20;;;;;;;1.42;0.75;;;10.20;99.90;;;;;;4995853;28;20600;-86
2023/12/24 14:26:51;;;;;;;2.25;1.00;;;10.50;99.90;;;;;;4978220;28;20041;-89
2023/12/24 14:29:17;;;;;;;;;;;9.90;99.90;;;;;;4969163;28;20030;-87
2023/12/24 14:31:42;;;;;;;1.98;1.10;;;11.00;99.90;;;;;;4981916;28;20585;-87
2023/12/24 14:34:17;;;;;;;4.47;1.08;;;9.60;99.90;;;;;;4982346;28;20093;-85
2023/12/24 14:36:43;;;;;;;2.10;0.98;;;10.90;99.90;;;;;;4996046;28;20084;-86
2023/12/24 14:39:09;;;;;;;2.20;1.20;;;9.10;99.90;;;;;;4984391;28;20054;-89
2023/12/24 14:41:36;;;;;;;2.78;1.05;;;9.80;99.90;;;;;;4979812;28;20026;-88
2023/12/24 14:44:03;;;;;;;4.40;1.45;;;10.00;99.90;;;;;;4996689;28;20034;-87
2023/12/24 14:46:29;;;;;;;3.67;1.33;;;9.70;99.90;;;;;;4971954;28;20026;-86
2023/12/24 14:48:58;;;;;;;2.17;0.80;;;9.70;99.90;;;;;;4995894;28;20057;-88
2023/12/24 14:51:23;;;;;;;2.40;1.20;;;9.90;99.90;;;;;;4997760;28;20124;-87
2023/12/24 14:53:55;;;;;;;2.80;0.95;;;9.90;99.90;;;;;;5000020;28;20492;-89
2023/12/24 14:56:23;;;;;;;2.88;0.98;;;9.80;99.90;;;;;;4991704;28;20050;-88
2023/12/24 14:58:51;;;;;;;5.60;2.30;;;10.20;99.90;;;;;;4975282;28;20023;-84
2023/12/24 15:01:17;;;;;;;2.00;0.90;;;9.70;99.90;;;;;;4987955;28;20031;-87
2023/12/24 15:03:43;;;;;;;6.07;1.50;;;10.90;99.90;;;;;;4986698;28;20029;-88
2023/12/24 15:06:11;;;;;;;9.98;4.88;;;9.70;99.90;;;;;;4990995;28;20074;-87
2023/12/24 15:08:40;;;;;;;5.60;2.05;;;10.90;99.90;;;;;;5006109;28;20057;-87
2023/12/24 15:11:05;;;;;;;6.47;2.47;;;10.50;99.90;;;;;;5006527;28;20022;-88
2023/12/24 15:13:31;;;;;;;27.52;15.40;;;9.70;99.90;;;;;;4985685;28;20123;-88
2023/12/24 15:16:00;;;;;;;3.92;1.40;;;10.90;99.90;;;;;;4991253;28;20054;-87
2023/12/24 15:18:28;;;;;;;4.95;1.50;;;9.60;99.90;;;;;;4997332;28;20089;-86
2023/12/24 15:20:59;;;;;;;5.38;1.70;;;9.60;99.90;;;;;;4998793;28;20030;-89
2023/12/24 15:23:25;;;;;;;5.30;2.00;;;10.70;99.90;;;;;;4985363;28;20088;-89
2023/12/24 15:25:53;;;;;;;4.90;1.98;;;9.80;99.90;;;;;;4981477;28;20034;-88
2023/12/24 15:28:21;;;;;;;8.73;2.63;;;10.20;99.90;;;;;;4996851;28;20034;-87
2023/12/24 15:30:50;;;;;;;11.65;4.68;;;10.60;99.90;;;;;;4980496;28;20035;-87
2023/12/24 15:33:18;;;;;;;5.22;1.45;;;9.80;99.90;;;;;;4994427;28;20038;-86
2023/12/24 15:35:54;;;;;;;16.48;7.60;;;10.00;99.90;;;;;;4985936;28;20030;-90
2023/12/24 15:38:20;;;;;;;7.40;1.50;;;9.80;99.90;;;;;;4982984;28;20030;-87
2023/12/24 15:40:46;;;;;;;6.25;2.70;;;10.40;99.90;;;;;;4980906;28;20560;-88
2023/12/24 15:43:20;;;;;;;7.75;1.85;;;10.60;99.90;;;;;;4993833;28;20034;-87
2023/12/24 15:45:46;;;;;;;4.85;2.88;;;9.70;99.90;;;;;;4962501;28;20121;-89
2023/12/24 15:48:12;;;;;;;6.00;2.00;;;10.90;99.90;;;;;;4986947;28;20085;-87
2023/12/24 15:50:37;;;;;;;5.22;2.00;;;9.90;99.90;;;;;;4994643;28;20045;-84
2023/12/24 15:53:03;;;;;;;6.07;2.05;;;10.50;99.90;;;;;;4994726;28;20042;-87
2023/12/24 15:55:29;;;;;;;7.07;1.90;;;10.80;99.90;;;;;;4978683;28;20039;-86
2023/12/24 15:57:58;;;;;;;3.20;1.40;;;10.60;99.90;;;;;;4995134;28;20025;-88
2023/12/24 16:00:23;;;;;;;3.25;1.80;;;9.60;99.90;;;;;;4992406;28;20033;-88
2023/12/24 16:02:49;;;;;;;4.18;1.40;;;10.40;99.90;;;;;;4992293;28;20027;-88
2023/12/24 16:05:20;;;;;;;3.80;1.50;;;9.70;99.90;;;;;;4979688;28;20031;-88
2023/12/24 16:07:46;;;;;;;;;;;9.70;99.90;;;;;;4997551;28;20030;-88
2023/12/24 16:10:11;;;;;;;4.20;1.60;;;9.80;99.90;;;;;;4979642;28;20931;-88
2023/12/24 16:12:37;;;;;;;5.38;1.30;;;9.80;99.90;;;;;;4982244;28;20049;-86
2023/12/24 16:15:05;;;;;;;4.70;1.67;;;10.40;99.90;;;;;;4979575;28;20029;-90
2023/12/24 16:17:38;;;;;;;3.67;1.20;;;9.90;99.90;;;;;;4999717;28;20026;-89
2023/12/24 16:20:06;;;;;;;6.60;1.90;;;10.30;99.90;;;;;;4999513;28;20023;-89
2023/12/24 16:22:32;;;;;;;5.18;1.30;;;9.80;99.90;;;;;;5004546;28;20027;-88
2023/12/24 16:24:57;;;;;;;3.72;1.20;;;10.90;99.90;;;;;;4989536;28;20049;-87
2023/12/24 16:27:23;;;;;;;4.55;1.10;;;10.00;99.90;;;;;;4993325;28;20030;-88
2023/12/24 16:29:49;;;;;;;5.22;1.35;;;10.80;99.90;;;;;;5008498;28;20041;-89
2023/12/24 16:32:16;;;;;;;3.25;1.30;;;10.50;99.90;;;;;;5012823;28;20090;-89
2023/12/24 16:34:45;;;;;;;9.00;1.60;;;10.40;99.90;;;;;;4991187;28;20018;-87
2023/12/24 16:37:10;;;;;;;4.18;1.30;;;10.10;99.90;;;;;;4989248;28;20023;-89
2023/12/24 16:39:38;;;;;;;4.03;1.48;;;11.20;99.90;;;;;;5001148;28;20026;-87
2023/12/24 16:42:07;;;;;;;5.30;1.70;;;11.30;99.90;;;;;;4994716;28;20484;-89
2023/12/24 16:44:35;;;;;;;3.63;1.40;;;11.00;99.90;;;;;;4993503;28;20030;-86
2023/12/24 16:47:02;;;;;;;3.47;1.27;;;11.50;99.90;;;;;;4988620;28;20027;-87
2023/12/24 16:49:33;;;;;;;5.95;1.70;;;10.80;99.90;;;;;;4993539;28;20086;-87
2023/12/24 16:51:59;;;;;;;6.65;1.75;;;10.20;99.90;;;;;;4982162;28;20042;-89
2023/12/24 16:54:24;;;;;;;6.63;2.25;;;9.20;99.90;;;;;;4978308;28;20086;-84
2023/12/24 16:56:56;;;;;;;4.72;1.58;;;10.40;99.90;;;;;;4988245;28;20030;-88
2023/12/24 16:59:27;;;;;;;3.88;1.20;;;10.30;99.90;;;;;;5001487;28;20034;-84
2023/12/24 17:01:53;;;;;;;4.63;1.40;;;10.20;99.90;;;;;;4984141;28;20049;-85
2023/12/24 17:04:21;;;;;;;4.03;1.50;;;10.60;99.90;;;;;;5004659;28;20026;-86
2023/12/24 17:06:48;;;;;;;4.10;1.20;;;11.20;99.90;;;;;;4983722;28;20038;-87
2023/12/24 17:09:14;;;;;;;3.53;1.17;;;11.10;99.90;;;;;;5008180;28;20022;-85
2023/12/24 17:11:40;;;;;;;3.30;1.10;;;11.30;99.90;;;;;;5008657;28;20014;-85
2023/12/24 17:14:08;;;;;;;3.08;1.27;;;11.20;99.90;;;;;;4986441;28;20044;-88
2023/12/24 17:16:43;;;;;;;3.60;1.45;;;10.80;99.90;;;;;;5005573;28;20026;-87
2023/12/24 17:19:09;;;;;;;3.38;1.02;;;10.30;99.90;;;;;;5008949;28;20113;-88
2023/12/24 17:21:38;;;;;;;3.60;1.10;;;10.40;99.90;;;;;;4995894;28;20038;-89
2023/12/24 17:24:04;;;;;;;4.60;1.20;;;10.50;99.90;;;;;;5013492;28;20027;-88
2023/12/24 17:26:30;;;;;;;3.53;1.38;;;10.50;99.90;;;;;;5016268;28;20030;-87
2023/12/24 17:28:55;;;;;;;3.85;1.02;;;10.70;99.90;;;;;;4989667;28;20038;-83
2023/12/24 17:31:21;;;;;;;2.67;1.27;;;11.10;99.90;;;;;;5005890;28;20037;-89
2023/12/24 17:33:47;;;;;;;4.28;1.52;;;11.50;99.90;;;;;;4978729;28;20030;-85
2023/12/24 17:36:26;;;;;;;5.60;1.48;;;10.80;99.90;;;;;;5004297;28;20415;-86
2023/12/24 17:38:52;;;;;;;4.68;1.63;;;10.40;99.90;;;;;;4985071;28;20477;-86
2023/12/24 17:41:19;;;;;;;4.68;1.65;;;10.10;99.90;;;;;;5006154;28;20078;-89
2023/12/24 17:43:48;;;;;;;4.53;1.40;;;10.30;99.90;;;;;;4993042;28;20069;-88
2023/12/24 17:46:15;;;;;;;4.25;1.40;;;11.20;99.90;;;;;;5007537;28;20094;-88
2023/12/24 17:48:43;;;;;;;3.08;1.50;;;11.30;99.90;;;;;;4979140;28;20101;-87
2023/12/24 17:51:09;;;;;;;5.55;1.40;;;10.40;99.90;;;;;;5007791;28;20109;-89
2023/12/24 17:53:36;;;;;;;3.83;1.52;;;10.30;99.90;;;;;;5005835;28;20386;-88
2023/12/24 17:56:04;;;;;;;4.22;1.55;;;11.00;99.90;;;;;;4994636;28;20037;-87
2023/12/24 17:58:38;;;;;;;3.70;1.20;;;10.30;99.90;;;;;;4984113;28;20034;-86
2023/12/24 18:01:06;;;;;;;4.35;1.50;;;11.10;99.90;;;;;;4974963;28;20302;-88
2023/12/24 18:03:32;;;;;;;5.57;1.38;;;10.60;99.90;;;;;;4977095;28;20031;-88
2023/12/24 18:05:58;;;;;;;4.43;1.42;;;10.60;99.90;;;;;;4989903;28;20045;-87
2023/12/24 18:08:23;;;;;;;3.90;1.55;;;10.90;99.90;;;;;;4997421;28;20046;-88